sensor_id;sensor_type;location;lat;lon;timestamp;pressure;altitude;pressure_sealevel;temperature;humidity
64644;BME280;51056;50.330;7.914;2023-03-04T00:00:15;101570.16;;;-0.13;77.39
64644;BME280;51056;50.330;7.914;2023-03-04T00:03:27;101579.53;;;-0.21;76.97
64644;BME280;51056;50.330;7.914;2023-03-04T00:06:30;101574.28;;;-0.32;77.36
64644;BME280;51056;50.330;7.914;2023-03-04T00:09:34;101581.97;;;-0.34;77.74
64644;BME280;51056;50.330;7.914;2023-03-04T00:12:37;101579.38;;;-0.37;77.69
64644;BME280;51056;50.330;7.914;2023-03-04T00:15:40;101578.53;;;-0.36;77.78
64644;BME280;51056;50.330;7.914;2023-03-04T00:18:44;101575.97;;;-0.37;78.27
64644;BME280;51056;50.330;7.914;2023-03-04T00:21:50;101580.28;;;-0.32;77.91
64644;BME280;51056;50.330;7.914;2023-03-04T00:24:53;101580.38;;;-0.21;77.46
64644;BME280;51056;50.330;7.914;2023-03-04T00:27:56;101573.53;;;-0.20;77.32
64644;BME280;51056;50.330;7.914;2023-03-04T00:31:00;101576.97;;;-0.21;78.00
64644;BME280;51056;50.330;7.914;2023-03-04T00:34:03;101576.13;;;-0.17;77.85
64644;BME280;51056;50.330;7.914;2023-03-04T00:37:07;101565.78;;;-0.24;77.83
64644;BME280;51056;50.330;7.914;2023-03-04T00:40:10;101573.53;;;-0.20;78.05
64644;BME280;51056;50.330;7.914;2023-03-04T00:43:14;101571.84;;;-0.18;77.98
64644;BME280;51056;50.330;7.914;2023-03-04T00:46:17;101565.88;;;-0.16;78.23
64644;BME280;51056;50.330;7.914;2023-03-04T00:49:20;101562.41;;;-0.16;78.37
64644;BME280;51056;50.330;7.914;2023-03-04T00:52:23;101565.00;;;-0.13;78.40
64644;BME280;51056;50.330;7.914;2023-03-04T00:55:27;101558.19;;;-0.10;78.39
64644;BME280;51056;50.330;7.914;2023-03-04T00:58:30;101559.94;;;-0.07;77.93
64644;BME280;51056;50.330;7.914;2023-03-04T01:01:33;101563.31;;;-0.13;78.33
64644;BME280;51056;50.330;7.914;2023-03-04T01:04:36;101554.75;;;-0.10;78.75
64644;BME280;51056;50.330;7.914;2023-03-04T01:07:39;101553.03;;;-0.14;78.85
64644;BME280;51056;50.330;7.914;2023-03-04T01:10:42;101546.16;;;-0.14;79.09
64644;BME280;51056;50.330;7.914;2023-03-04T01:13:45;101542.75;;;-0.11;78.88
64644;BME280;51056;50.330;7.914;2023-03-04T01:16:48;101534.22;;;-0.07;78.98
64644;BME280;51056;50.330;7.914;2023-03-04T01:19:52;101534.25;;;-0.04;79.19
64644;BME280;51056;50.330;7.914;2023-03-04T01:22:55;101536.00;;;0.03;78.95
64644;BME280;51056;50.330;7.914;2023-03-04T01:25:58;101528.31;;;0.09;78.94
64644;BME280;51056;50.330;7.914;2023-03-04T01:29:02;101520.56;;;0.03;79.37
64644;BME280;51056;50.330;7.914;2023-03-04T01:32:05;101522.38;;;0.13;79.10
64644;BME280;51056;50.330;7.914;2023-03-04T01:35:08;101516.41;;;0.17;78.91
64644;BME280;51056;50.330;7.914;2023-03-04T01:38:11;101513.81;;;0.14;79.23
64644;BME280;51056;50.330;7.914;2023-03-04T01:41:15;101511.28;;;0.20;79.31
64644;BME280;51056;50.330;7.914;2023-03-04T01:44:19;101507.84;;;0.25;78.99
64644;BME280;51056;50.330;7.914;2023-03-04T01:47:23;101501.88;;;0.26;79.15
64644;BME280;51056;50.330;7.914;2023-03-04T01:50:31;101494.97;;;0.21;79.18
64644;BME280;51056;50.330;7.914;2023-03-04T01:53:34;101493.28;;;0.23;79.20
64644;BME280;51056;50.330;7.914;2023-03-04T01:56:38;101490.66;;;0.19;79.43
64644;BME280;51056;50.330;7.914;2023-03-04T01:59:42;101488.13;;;0.23;79.43
64644;BME280;51056;50.330;7.914;2023-03-04T02:02:45;101488.13;;;0.23;79.56
64644;BME280;51056;50.330;7.914;2023-03-04T02:05:48;101479.56;;;0.25;79.75
64644;BME280;51056;50.330;7.914;2023-03-04T02:08:52;101482.19;;;0.29;79.48
64644;BME280;51056;50.330;7.914;2023-03-04T02:11:57;101473.56;;;0.27;79.86
64644;BME280;51056;50.330;7.914;2023-03-04T02:15:02;101465.88;;;0.32;79.78
64644;BME280;51056;50.330;7.914;2023-03-04T02:18:16;101471.03;;;0.32;79.95
64644;BME280;51056;50.330;7.914;2023-03-04T02:21:23;101469.31;;;0.34;80.09
64644;BME280;51056;50.330;7.914;2023-03-04T02:27:37;101465.91;;;0.33;80.26
64644;BME280;51056;50.330;7.914;2023-03-04T02:30:42;101466.78;;;0.44;80.08
64644;BME280;51056;50.330;7.914;2023-03-04T02:33:45;101471.09;;;0.42;79.82
64644;BME280;51056;50.330;7.914;2023-03-04T02:36:50;101465.94;;;0.39;80.14
64644;BME280;51056;50.330;7.914;2023-03-04T02:39:53;101459.06;;;0.37;80.05
64644;BME280;51056;50.330;7.914;2023-03-04T02:42:58;101458.19;;;0.36;80.33
64644;BME280;51056;50.330;7.914;2023-03-04T02:46:02;101455.63;;;0.41;80.51
64644;BME280;51056;50.330;7.914;2023-03-04T02:49:07;101450.50;;;0.44;79.98
64644;BME280;51056;50.330;7.914;2023-03-04T02:53:28;101453.09;;;0.49;80.12
64644;BME280;51056;50.330;7.914;2023-03-04T02:56:32;101445.38;;;0.53;80.22
64644;BME280;51056;50.330;7.914;2023-03-04T02:59:36;101455.69;;;0.53;80.26
64644;BME280;51056;50.330;7.914;2023-03-04T03:02:40;101457.41;;;0.54;80.27
64644;BME280;51056;50.330;7.914;2023-03-04T03:05:43;101455.69;;;0.56;80.07
64644;BME280;51056;50.330;7.914;2023-03-04T03:08:47;101454.00;;;0.61;80.34
64644;BME280;51056;50.330;7.914;2023-03-04T03:11:50;101454.84;;;0.60;80.31
64644;BME280;51056;50.330;7.914;2023-03-04T03:19:06;101450.59;;;0.65;80.36
64644;BME280;51056;50.330;7.914;2023-03-04T03:22:10;101445.44;;;0.62;80.46
64644;BME280;51056;50.330;7.914;2023-03-04T03:25:13;101445.44;;;0.62;80.61
64644;BME280;51056;50.330;7.914;2023-03-04T03:28:17;101440.28;;;0.65;80.68
64644;BME280;51056;50.330;7.914;2023-03-04T03:31:20;101438.59;;;0.67;80.51
64644;BME280;51056;50.330;7.914;2023-03-04T03:34:23;101438.59;;;0.69;80.48
64644;BME280;51056;50.330;7.914;2023-03-04T03:37:26;101436.03;;;0.71;80.80
64644;BME280;51056;50.330;7.914;2023-03-04T03:40:29;101430.88;;;0.71;80.88
64644;BME280;51056;50.330;7.914;2023-03-04T03:43:32;101426.56;;;0.73;80.73
64644;BME280;51056;50.330;7.914;2023-03-04T03:46:36;101431.72;;;0.73;80.99
64644;BME280;51056;50.330;7.914;2023-03-04T03:49:39;101423.16;;;0.74;81.11
64644;BME280;51056;50.330;7.914;2023-03-04T03:52:42;101428.31;;;0.74;81.26
64644;BME280;51056;50.330;7.914;2023-03-04T03:59:38;101430.03;;;0.78;80.99
64644;BME280;51056;50.330;7.914;2023-03-04T04:02:41;101428.31;;;0.80;81.22
64644;BME280;51056;50.330;7.914;2023-03-04T04:05:44;101420.59;;;0.75;81.03
64644;BME280;51056;50.330;7.914;2023-03-04T04:08:47;101424.88;;;0.79;81.18
64644;BME280;51056;50.330;7.914;2023-03-04T04:11:50;101426.63;;;0.83;81.18
64644;BME280;51056;50.330;7.914;2023-03-04T04:14:53;101424.91;;;0.84;81.17
64644;BME280;51056;50.330;7.914;2023-03-04T04:17:56;101424.03;;;0.85;81.43
64644;BME280;51056;50.330;7.914;2023-03-04T04:20:59;101419.75;;;0.84;81.41
64644;BME280;51056;50.330;7.914;2023-03-04T04:24:02;101423.19;;;0.81;81.33
64644;BME280;51056;50.330;7.914;2023-03-04T04:27:06;101409.44;;;0.84;81.44
64644;BME280;51056;50.330;7.914;2023-03-04T04:30:09;101415.44;;;0.86;81.48
64644;BME280;51056;50.330;7.914;2023-03-04T04:33:12;101408.59;;;0.83;81.51
64644;BME280;51056;50.330;7.914;2023-03-04T04:36:15;101407.72;;;0.86;81.87
64644;BME280;51056;50.330;7.914;2023-03-04T04:39:18;101411.16;;;0.88;81.59
64644;BME280;51056;50.330;7.914;2023-03-04T04:42:21;101412.03;;;0.87;81.75
64644;BME280;51056;50.330;7.914;2023-03-04T04:45:25;101414.59;;;0.87;81.51
64644;BME280;51056;50.330;7.914;2023-03-04T04:48:28;101413.75;;;0.89;81.42
64644;BME280;51056;50.330;7.914;2023-03-04T04:51:31;101406.91;;;0.93;81.46
64644;BME280;51056;50.330;7.914;2023-03-04T04:54:34;101400.88;;;0.97;81.72
64644;BME280;51056;50.330;7.914;2023-03-04T04:57:37;101400.03;;;0.97;81.40
64644;BME280;51056;50.330;7.914;2023-03-04T05:00:40;101406.03;;;0.97;81.96
64644;BME280;51056;50.330;7.914;2023-03-04T05:03:43;101406.03;;;0.94;81.70
64644;BME280;51056;50.330;7.914;2023-03-04T05:06:46;101411.19;;;0.94;81.84
64644;BME280;51056;50.330;7.914;2023-03-04T05:09:49;101395.72;;;0.91;81.99
64644;BME280;51056;50.330;7.914;2023-03-04T05:12:51;101406.00;;;0.92;81.84
64644;BME280;51056;50.330;7.914;2023-03-04T05:15:55;101401.75;;;0.93;82.31
64644;BME280;51056;50.330;7.914;2023-03-04T05:18:58;101399.19;;;0.96;81.87
64644;BME280;51056;50.330;7.914;2023-03-04T05:22:01;101403.47;;;0.94;82.08
64644;BME280;51056;50.330;7.914;2023-03-04T05:25:04;101403.44;;;0.91;82.13
64644;BME280;51056;50.330;7.914;2023-03-04T05:28:09;101400.88;;;0.97;82.20
64644;BME280;51056;50.330;7.914;2023-03-04T05:31:14;101397.44;;;0.95;82.37
64644;BME280;51056;50.330;7.914;2023-03-04T05:34:18;101402.59;;;0.98;82.26
64644;BME280;51056;50.330;7.914;2023-03-04T05:37:21;101404.31;;;1.01;82.36
64644;BME280;51056;50.330;7.914;2023-03-04T05:40:24;101397.44;;;1.07;82.08
64644;BME280;51056;50.330;7.914;2023-03-04T05:43:27;101402.63;;;1.12;81.83
64644;BME280;51056;50.330;7.914;2023-03-04T05:46:30;101406.06;;;1.12;81.71
64644;BME280;51056;50.330;7.914;2023-03-04T05:49:33;101403.47;;;1.15;82.23
64644;BME280;51056;50.330;7.914;2023-03-04T05:52:37;101412.06;;;1.16;81.99
64644;BME280;51056;50.330;7.914;2023-03-04T05:55:40;101393.16;;;1.17;82.17
64644;BME280;51056;50.330;7.914;2023-03-04T05:58:48;101408.63;;;1.15;82.20
64644;BME280;51056;50.330;7.914;2023-03-04T06:01:51;101408.63;;;1.14;82.44
64644;BME280;51056;50.330;7.914;2023-03-04T06:04:55;101414.63;;;1.14;82.42
64644;BME280;51056;50.330;7.914;2023-03-04T06:07:58;101421.50;;;1.15;82.51
64644;BME280;51056;50.330;7.914;2023-03-04T06:11:01;101414.63;;;1.17;82.58
64644;BME280;51056;50.330;7.914;2023-03-04T06:14:06;101421.50;;;1.23;82.37
64644;BME280;51056;50.330;7.914;2023-03-04T06:17:09;101430.94;;;1.24;82.36
64644;BME280;51056;50.330;7.914;2023-03-04T06:20:12;101428.38;;;1.23;82.36
64644;BME280;51056;50.330;7.914;2023-03-04T06:23:15;101430.09;;;1.25;82.57
64644;BME280;51056;50.330;7.914;2023-03-04T06:26:19;101428.38;;;1.26;82.63
64644;BME280;51056;50.330;7.914;2023-03-04T06:29:22;101430.09;;;1.30;82.40
64644;BME280;51056;50.330;7.914;2023-03-04T06:32:27;101430.97;;;1.32;82.32
64644;BME280;51056;50.330;7.914;2023-03-04T06:35:30;101427.53;;;1.31;82.55
64644;BME280;51056;50.330;7.914;2023-03-04T06:38:34;101438.69;;;1.35;82.53
64644;BME280;51056;50.330;7.914;2023-03-04T06:41:38;101442.13;;;1.34;82.73
64644;BME280;51056;50.330;7.914;2023-03-04T06:44:41;101441.28;;;1.32;83.30
64644;BME280;51056;50.330;7.914;2023-03-04T06:47:46;101445.56;;;1.36;82.56
64644;BME280;51056;50.330;7.914;2023-03-04T06:50:49;101447.28;;;1.25;83.39
64644;BME280;51056;50.330;7.914;2023-03-04T06:53:52;101447.28;;;1.43;82.66
64644;BME280;51056;50.330;7.914;2023-03-04T06:56:55;101442.97;;;1.36;82.88
64644;BME280;51056;50.330;7.914;2023-03-04T06:59:58;101442.13;;;1.46;82.50
64644;BME280;51056;50.330;7.914;2023-03-04T07:03:01;101452.41;;;1.11;83.50
64644;BME280;51056;50.330;7.914;2023-03-04T07:06:05;101447.25;;;1.08;84.47
64644;BME280;51056;50.330;7.914;2023-03-04T07:09:08;101451.59;;;1.41;83.15
64644;BME280;51056;50.330;7.914;2023-03-04T07:12:11;101461.91;;;1.56;82.38
64644;BME280;51056;50.330;7.914;2023-03-04T07:15:15;101466.19;;;1.63;82.29
64644;BME280;51056;50.330;7.914;2023-03-04T07:18:18;101465.34;;;1.66;82.07
64644;BME280;51056;50.330;7.914;2023-03-04T07:21:21;101465.31;;;1.61;82.78
64644;BME280;51056;50.330;7.914;2023-03-04T07:24:24;101468.78;;;1.67;82.78
64644;BME280;51056;50.330;7.914;2023-03-04T07:27:28;101470.47;;;1.68;82.92
64644;BME280;51056;50.330;7.914;2023-03-04T07:30:31;101465.31;;;1.71;82.59
64644;BME280;51056;50.330;7.914;2023-03-04T07:33:34;101476.50;;;1.76;82.29
64644;BME280;51056;50.330;7.914;2023-03-04T07:36:37;101473.91;;;1.80;82.04
64644;BME280;51056;50.330;7.914;2023-03-04T07:39:41;101469.59;;;1.81;82.39
64644;BME280;51056;50.330;7.914;2023-03-04T07:42:48;101480.78;;;1.81;82.40
64644;BME280;51056;50.330;7.914;2023-03-04T07:45:52;101473.88;;;1.91;81.56
64644;BME280;51056;50.330;7.914;2023-03-04T07:49:00;101473.88;;;1.85;81.75
64644;BME280;51056;50.330;7.914;2023-03-04T07:52:04;101479.06;;;1.86;81.84
64644;BME280;51056;50.330;7.914;2023-03-04T07:55:11;101473.03;;;2.01;81.68
64644;BME280;51056;50.330;7.914;2023-03-04T07:58:14;101474.72;;;2.05;81.65
64644;BME280;51056;50.330;7.914;2023-03-04T08:01:31;101473.84;;;2.09;81.63
64644;BME280;51056;50.330;7.914;2023-03-04T08:04:37;101479.88;;;2.08;81.34
64644;BME280;51056;50.330;7.914;2023-03-04T08:07:43;101481.63;;;2.08;81.41
64644;BME280;51056;50.330;7.914;2023-03-04T08:10:47;101480.78;;;1.77;82.96
64644;BME280;51056;50.330;7.914;2023-03-04T08:13:50;101483.34;;;2.01;81.74
64644;BME280;51056;50.330;7.914;2023-03-04T08:16:56;101485.03;;;2.18;81.22
64644;BME280;51056;50.330;7.914;2023-03-04T08:19:58;101484.13;;;2.28;81.00
64644;BME280;51056;50.330;7.914;2023-03-04T08:23:02;101485.91;;;2.07;81.26
64644;BME280;51056;50.330;7.914;2023-03-04T08:26:09;101484.97;;;2.31;80.80
64644;BME280;51056;50.330;7.914;2023-03-04T08:29:24;101489.34;;;2.17;81.47
64644;BME280;51056;50.330;7.914;2023-03-04T08:32:27;101480.66;;;2.38;80.55
64644;BME280;51056;50.330;7.914;2023-03-04T08:35:30;101477.22;;;2.35;80.07
64644;BME280;51056;50.330;7.914;2023-03-04T08:38:33;101482.38;;;2.38;80.14
64644;BME280;51056;50.330;7.914;2023-03-04T08:41:38;101483.28;;;2.14;81.40
64644;BME280;51056;50.330;7.914;2023-03-04T08:44:42;101485.00;;;2.19;81.98
64644;BME280;51056;50.330;7.914;2023-03-04T08:47:44;101482.44;;;2.19;81.53
64644;BME280;51056;50.330;7.914;2023-03-04T08:50:48;101483.28;;;2.26;81.75
64644;BME280;51056;50.330;7.914;2023-03-04T08:53:51;101486.72;;;2.31;81.10
64644;BME280;51056;50.330;7.914;2023-03-04T08:56:54;101485.00;;;2.33;81.49
64644;BME280;51056;50.330;7.914;2023-03-04T08:59:57;101486.63;;;2.54;80.36
64644;BME280;51056;50.330;7.914;2023-03-04T09:03:01;101488.31;;;2.66;79.80
64644;BME280;51056;50.330;7.914;2023-03-04T09:09:35;101486.66;;;2.52;80.29
64644;BME280;51056;50.330;7.914;2023-03-04T09:12:38;101492.59;;;2.67;80.17
64644;BME280;51056;50.330;7.914;2023-03-04T09:15:44;101479.69;;;2.70;79.83
64644;BME280;51056;50.330;7.914;2023-03-04T09:18:47;101485.56;;;2.93;79.49
64644;BME280;51056;50.330;7.914;2023-03-04T09:21:54;101481.31;;;2.88;79.97
64644;BME280;51056;50.330;7.914;2023-03-04T09:24:58;101477.91;;;2.84;80.54
64644;BME280;51056;50.330;7.914;2023-03-04T09:28:01;101473.53;;;2.94;79.88
64644;BME280;51056;50.330;7.914;2023-03-04T09:31:12;101481.31;;;2.86;79.40
64644;BME280;51056;50.330;7.914;2023-03-04T09:34:16;101480.44;;;2.90;79.63
64644;BME280;51056;50.330;7.914;2023-03-04T09:37:19;101473.38;;;3.15;79.29
64644;BME280;51056;50.330;7.914;2023-03-04T09:40:24;101482.09;;;3.02;79.14
64644;BME280;51056;50.330;7.914;2023-03-04T09:43:28;101479.38;;;3.22;78.76
64644;BME280;51056;50.330;7.914;2023-03-04T09:46:35;101481.06;;;3.29;78.17
64644;BME280;51056;50.330;7.914;2023-03-04T09:49:41;101474.97;;;3.35;78.51
64644;BME280;51056;50.330;7.914;2023-03-04T09:56:04;101470.50;;;3.58;76.98
64644;BME280;51056;50.330;7.914;2023-03-04T10:06:10;101473.75;;;3.83;76.34
64644;BME280;51056;50.330;7.914;2023-03-04T10:09:15;101471.13;;;3.85;76.31
64644;BME280;51056;50.330;7.914;2023-03-04T10:12:21;101467.63;;;3.89;77.01
64644;BME280;51056;50.330;7.914;2023-03-04T10:15:37;101461.59;;;3.88;76.41
64644;BME280;51056;50.330;7.914;2023-03-04T10:18:43;101460.63;;;4.00;75.66
64644;BME280;51056;50.330;7.914;2023-03-04T10:21:48;101450.22;;;4.06;75.65
64644;BME280;51056;50.330;7.914;2023-03-04T10:24:54;101444.13;;;4.12;73.74
64644;BME280;51056;50.330;7.914;2023-03-04T10:28:12;101445.72;;;4.20;73.91
64644;BME280;51056;50.330;7.914;2023-03-04T10:34:24;101446.41;;;4.36;73.09
64644;BME280;51056;50.330;7.914;2023-03-04T10:37:41;101442.31;;;4.18;72.31
64644;BME280;51056;50.330;7.914;2023-03-04T10:41:29;101447.59;;;4.09;71.69
64644;BME280;51056;50.330;7.914;2023-03-04T10:44:33;101448.34;;;4.19;71.53
64644;BME280;51056;50.330;7.914;2023-03-04T10:47:41;101441.38;;;4.24;70.78
64644;BME280;51056;50.330;7.914;2023-03-04T10:50:54;101436.13;;;4.30;71.41
64644;BME280;51056;50.330;7.914;2023-03-04T10:57:32;101445.44;;;4.47;70.62
64644;BME280;51056;50.330;7.914;2023-03-04T11:00:36;101440.97;;;4.58;70.09
64644;BME280;51056;50.330;7.914;2023-03-04T11:03:45;101433.31;;;4.49;69.78
64644;BME280;51056;50.330;7.914;2023-03-04T11:06:49;101433.59;;;4.24;70.44
64644;BME280;51056;50.330;7.914;2023-03-04T11:09:53;101434.50;;;4.23;70.52
64644;BME280;51056;50.330;7.914;2023-03-04T11:13:12;101434.25;;;4.45;70.04
64644;BME280;51056;50.330;7.914;2023-03-04T11:16:23;101433.41;;;4.42;69.37
64644;BME280;51056;50.330;7.914;2023-03-04T11:19:30;101428.06;;;4.56;69.84
64644;BME280;51056;50.330;7.914;2023-03-04T11:22:37;101421.22;;;4.51;69.09
64644;BME280;51056;50.330;7.914;2023-03-04T11:25:42;101418.44;;;4.66;68.63
64644;BME280;51056;50.330;7.914;2023-03-04T11:28:57;101408.72;;;4.82;68.44
64644;BME280;51056;50.330;7.914;2023-03-04T11:32:09;101402.69;;;4.80;66.95
64644;BME280;51056;50.330;7.914;2023-03-04T11:39:22;101392.97;;;4.94;66.81
64644;BME280;51056;50.330;7.914;2023-03-04T11:52:07;101384.06;;;5.12;66.46
64644;BME280;51056;50.330;7.914;2023-03-04T12:01:27;101370.19;;;5.13;66.80
64644;BME280;51056;50.330;7.914;2023-03-04T12:11:11;101358.19;;;5.09;67.60
64644;BME280;51056;50.330;7.914;2023-03-04T12:14:33;101363.38;;;5.09;67.81
64644;BME280;51056;50.330;7.914;2023-03-04T12:30:40;101334.88;;;5.07;68.35
64644;BME280;51056;50.330;7.914;2023-03-04T12:34:04;101335.13;;;5.42;67.86
64644;BME280;51056;50.330;7.914;2023-03-04T12:37:17;101333.81;;;5.19;68.04
64644;BME280;51056;50.330;7.914;2023-03-04T12:40:42;101336.03;;;5.39;68.44
64644;BME280;51056;50.330;7.914;2023-03-04T12:43:52;101330.81;;;5.42;67.66
64644;BME280;51056;50.330;7.914;2023-03-04T12:47:12;101320.59;;;5.34;68.59
64644;BME280;51056;50.330;7.914;2023-03-04T12:53:48;101317.19;;;5.31;69.30
64644;BME280;51056;50.330;7.914;2023-03-04T12:57:03;101304.25;;;5.29;68.83
64644;BME280;51056;50.330;7.914;2023-03-04T13:09:37;101292.41;;;5.61;68.10
64644;BME280;51056;50.330;7.914;2023-03-04T13:12:57;101297.03;;;5.45;68.72
64644;BME280;51056;50.330;7.914;2023-03-04T13:29:10;101279.41;;;5.63;68.44
64644;BME280;51056;50.330;7.914;2023-03-04T13:32:35;101272.66;;;5.55;68.28
64644;BME280;51056;50.330;7.914;2023-03-04T13:38:58;101274.06;;;5.70;68.19
64644;BME280;51056;50.330;7.914;2023-03-04T13:42:02;101274.38;;;5.55;68.77
64644;BME280;51056;50.330;7.914;2023-03-04T13:48:40;101267.19;;;5.69;68.13
64644;BME280;51056;50.330;7.914;2023-03-04T13:51:45;101271.41;;;5.73;68.23
64644;BME280;51056;50.330;7.914;2023-03-04T13:54:48;101268.75;;;5.76;68.08
64644;BME280;51056;50.330;7.914;2023-03-04T13:57:51;101270.38;;;5.80;68.00
64644;BME280;51056;50.330;7.914;2023-03-04T14:00:55;101272.84;;;5.88;67.82
64644;BME280;51056;50.330;7.914;2023-03-04T14:04:00;101270.22;;;5.90;68.03
64644;BME280;51056;50.330;7.914;2023-03-04T14:10:28;101256.31;;;5.92;67.92
64644;BME280;51056;50.330;7.914;2023-03-04T14:13:32;101260.66;;;5.92;68.80
64644;BME280;51056;50.330;7.914;2023-03-04T14:16:50;101247.38;;;6.07;68.06
64644;BME280;51056;50.330;7.914;2023-03-04T14:19:54;101249.22;;;6.02;67.60
64644;BME280;51056;50.330;7.914;2023-03-04T14:22:59;101239.41;;;6.15;68.04
64644;BME280;51056;50.330;7.914;2023-03-04T14:26:06;101244.47;;;6.21;67.74
64644;BME280;51056;50.330;7.914;2023-03-04T14:29:29;101233.50;;;6.10;67.81
64644;BME280;51056;50.330;7.914;2023-03-04T14:33:05;101234.66;;;6.34;67.13
64644;BME280;51056;50.330;7.914;2023-03-04T14:36:24;101227.00;;;6.27;66.82
64644;BME280;51056;50.330;7.914;2023-03-04T14:39:29;101224.41;;;6.27;66.62
64644;BME280;51056;50.330;7.914;2023-03-04T14:42:37;101217.78;;;6.14;67.28
64644;BME280;51056;50.330;7.914;2023-03-04T14:45:47;101215.19;;;6.14;68.33
64644;BME280;51056;50.330;7.914;2023-03-04T14:48:53;101202.25;;;6.13;67.29
64644;BME280;51056;50.330;7.914;2023-03-04T14:51:58;101208.94;;;5.82;68.51
64644;BME280;51056;50.330;7.914;2023-03-04T14:58:20;101211.25;;;5.98;69.72
64644;BME280;51056;50.330;7.914;2023-03-04T15:04:32;101199.88;;;6.02;69.23
64644;BME280;51056;50.330;7.914;2023-03-04T15:07:37;101206.69;;;6.08;69.01
64644;BME280;51056;50.330;7.914;2023-03-04T15:10:40;101193.91;;;6.00;68.88
64644;BME280;51056;50.330;7.914;2023-03-04T15:13:45;101193.59;;;6.12;68.82
64644;BME280;51056;50.330;7.914;2023-03-04T15:16:53;101196.75;;;6.25;68.51
64644;BME280;51056;50.330;7.914;2023-03-04T15:23:02;101198.13;;;6.02;68.54
64644;BME280;51056;50.330;7.914;2023-03-04T15:26:07;101201.03;;;5.89;69.37
64644;BME280;51056;50.330;7.914;2023-03-04T15:29:15;101184.59;;;5.88;69.73
64644;BME280;51056;50.330;7.914;2023-03-04T15:32:19;101188.94;;;5.88;69.54
64644;BME280;51056;50.330;7.914;2023-03-04T15:35:23;101190.53;;;5.95;69.24
64644;BME280;51056;50.330;7.914;2023-03-04T15:38:27;101188.53;;;6.06;69.42
64644;BME280;51056;50.330;7.914;2023-03-04T15:41:31;101187.75;;;6.02;69.19
64644;BME280;51056;50.330;7.914;2023-03-04T15:44:34;101187.53;;;6.13;68.86
64644;BME280;51056;50.330;7.914;2023-03-04T15:47:40;101182.03;;;5.87;70.14
64644;BME280;51056;50.330;7.914;2023-03-04T15:50:47;101181.16;;;5.88;70.05
64644;BME280;51056;50.330;7.914;2023-03-04T15:53:55;101178.72;;;5.80;70.57
64644;BME280;51056;50.330;7.914;2023-03-04T15:56:59;101178.66;;;5.83;70.49
64644;BME280;51056;50.330;7.914;2023-03-04T16:00:03;101172.69;;;5.79;70.68
64644;BME280;51056;50.330;7.914;2023-03-04T16:03:15;101173.78;;;5.68;71.04
64644;BME280;51056;50.330;7.914;2023-03-04T16:06:19;101177.03;;;5.77;71.25
64644;BME280;51056;50.330;7.914;2023-03-04T16:09:27;101177.72;;;5.87;70.69
64644;BME280;51056;50.330;7.914;2023-03-04T16:12:32;101179.53;;;5.82;70.53
64644;BME280;51056;50.330;7.914;2023-03-04T16:15:36;101177.78;;;5.84;70.53
64644;BME280;51056;50.330;7.914;2023-03-04T16:18:39;101180.31;;;5.86;70.47
64644;BME280;51056;50.330;7.914;2023-03-04T16:21:42;101178.03;;;5.72;71.30
64644;BME280;51056;50.330;7.914;2023-03-04T16:24:46;101182.56;;;5.62;71.78
64644;BME280;51056;50.330;7.914;2023-03-04T16:27:50;101179.09;;;5.63;71.94
64644;BME280;51056;50.330;7.914;2023-03-04T16:30:54;101172.22;;;5.60;72.16
64644;BME280;51056;50.330;7.914;2023-03-04T16:33:56;101180.13;;;5.54;72.83
64644;BME280;51056;50.330;7.914;2023-03-04T16:36:59;101181.25;;;5.43;73.47
64644;BME280;51056;50.330;7.914;2023-03-04T16:40:06;101192.56;;;5.39;73.62
64644;BME280;51056;50.330;7.914;2023-03-04T16:43:14;101186.50;;;5.40;73.85
64644;BME280;51056;50.330;7.914;2023-03-04T16:46:18;101194.13;;;5.47;73.60
64644;BME280;51056;50.330;7.914;2023-03-04T16:49:21;101185.16;;;5.62;73.58
64644;BME280;51056;50.330;7.914;2023-03-04T16:52:26;101183.25;;;5.70;73.09
64644;BME280;51056;50.330;7.914;2023-03-04T16:55:32;101184.09;;;5.72;73.29
64644;BME280;51056;50.330;7.914;2023-03-04T16:58:38;101176.13;;;5.80;73.11
64644;BME280;51056;50.330;7.914;2023-03-04T17:01:46;101177.97;;;5.75;73.56
64644;BME280;51056;50.330;7.914;2023-03-04T17:04:51;101184.00;;;5.75;73.40
64644;BME280;51056;50.330;7.914;2023-03-04T17:07:55;101179.53;;;5.82;73.17
64644;BME280;51056;50.330;7.914;2023-03-04T17:10:58;101176.06;;;5.83;73.86
64644;BME280;51056;50.330;7.914;2023-03-04T17:14:02;101172.75;;;5.76;73.76
64644;BME280;51056;50.330;7.914;2023-03-04T17:17:06;101172.72;;;5.78;73.46
64644;BME280;51056;50.330;7.914;2023-03-04T17:20:14;101168.38;;;5.78;73.69
64644;BME280;51056;50.330;7.914;2023-03-04T17:23:19;101169.41;;;5.71;74.14
64644;BME280;51056;50.330;7.914;2023-03-04T17:26:23;101172.00;;;5.71;74.02
64644;BME280;51056;50.330;7.914;2023-03-04T17:29:27;101166.69;;;5.76;73.87
64644;BME280;51056;50.330;7.914;2023-03-04T17:32:31;101174.66;;;5.68;74.58
64644;BME280;51056;50.330;7.914;2023-03-04T17:35:38;101173.00;;;5.66;74.58
64644;BME280;51056;50.330;7.914;2023-03-04T17:38:42;101170.81;;;5.46;75.35
64644;BME280;51056;50.330;7.914;2023-03-04T17:41:48;101175.94;;;5.49;75.35
64644;BME280;51056;50.330;7.914;2023-03-04T17:44:55;101176.59;;;5.58;74.94
64644;BME280;51056;50.330;7.914;2023-03-04T17:47:58;101169.75;;;5.56;75.13
64644;BME280;51056;50.330;7.914;2023-03-04T17:51:03;101180.97;;;5.56;75.49
64644;BME280;51056;50.330;7.914;2023-03-04T17:54:07;101172.53;;;5.47;76.35
64644;BME280;51056;50.330;7.914;2023-03-04T17:57:16;101172.25;;;5.59;75.61
64644;BME280;51056;50.330;7.914;2023-03-04T18:00:28;101168.97;;;5.51;76.67
64644;BME280;51056;50.330;7.914;2023-03-04T18:03:32;101169.78;;;5.53;76.94
64644;BME280;51056;50.330;7.914;2023-03-04T18:06:36;101167.41;;;5.44;77.72
64644;BME280;51056;50.330;7.914;2023-03-04T18:09:39;101165.75;;;5.40;78.05
64644;BME280;51056;50.330;7.914;2023-03-04T18:12:44;101171.69;;;5.45;78.32
64644;BME280;51056;50.330;7.914;2023-03-04T18:15:49;101170.59;;;5.55;77.76
64644;BME280;51056;50.330;7.914;2023-03-04T18:18:53;101170.53;;;5.58;78.46